sensor_id;sensor_type;location;lat;lon;timestamp;P1;P4;P2;P0;N10;N4;N25;N1;N05;TS
79335;SPS30;69634;52.122;5.406;2023-05-16T00:00:41;4.82;4.36;3.38;2.06;16.40;16.34;16.12;14.77;10.71;77.79
79335;SPS30;69634;52.122;5.406;2023-05-16T00:03:14;4.56;4.12;3.14;1.91;15.16;15.11;14.89;13.58;9.76;79.31
79335;SPS30;69634;52.122;5.406;2023-05-16T00:05:49;4.79;4.34;3.33;1.99;15.96;15.91;15.68;14.31;10.33;79.27
79335;SPS30;69634;52.122;5.406;2023-05-16T00:08:22;4.98;4.50;3.46;2.10;16.77;16.73;16.49;15.09;10.93;77.89
79335;SPS30;69634;52.122;5.406;2023-05-16T00:10:55;5.29;4.80;3.60;2.11;16.90;16.82;16.59;15.02;10.65;80.46
79335;SPS30;69634;52.122;5.406;2023-05-16T00:13:28;5.12;4.63;3.49;2.02;16.14;16.06;15.82;14.29;10.08;80.05
79335;SPS30;69634;52.122;5.406;2023-05-16T00:16:00;5.61;5.04;3.75;2.12;17.00;16.95;16.67;14.96;10.39;81.27
79335;SPS30;69634;52.122;5.406;2023-05-16T00:18:33;5.42;4.88;3.65;2.07;16.55;16.49;16.24;14.58;10.16;81.49
79335;SPS30;69634;52.122;5.406;2023-05-16T00:21:09;5.06;4.56;3.43;1.99;15.91;15.84;15.60;14.11;9.94;81.30
79335;SPS30;69634;52.122;5.406;2023-05-16T00:23:41;5.27;4.77;3.61;2.09;16.79;16.71;16.47;14.91;10.56;80.15
79335;SPS30;69634;52.122;5.406;2023-05-16T00:26:13;5.08;4.59;3.44;2.01;16.09;16.04;15.79;14.29;10.10;79.91
79335;SPS30;69634;52.122;5.406;2023-05-16T00:28:46;5.39;4.88;3.66;2.12;16.94;16.86;16.61;15.00;10.56;80.07
79335;SPS30;69634;52.122;5.406;2023-05-16T00:31:19;5.64;5.08;3.79;2.14;17.20;17.13;16.84;15.13;10.51;81.33
79335;SPS30;69634;52.122;5.406;2023-05-16T00:33:51;5.41;4.86;3.63;2.02;16.23;16.15;15.90;14.24;9.84;82.88
79335;SPS30;69634;52.122;5.406;2023-05-16T00:36:26;5.01;4.53;3.38;1.90;15.34;15.30;15.05;13.53;9.41;82.04
79335;SPS30;69634;52.122;5.406;2023-05-16T00:39:01;5.86;5.30;4.00;2.34;18.67;18.63;18.35;16.61;11.76;79.54
79335;SPS30;69634;52.122;5.406;2023-05-16T00:41:33;5.35;4.84;3.66;2.16;17.36;17.28;17.02;15.46;11.04;78.17
79335;SPS30;69634;52.122;5.406;2023-05-16T00:44:06;4.69;4.23;3.22;1.91;15.35;15.28;15.06;13.71;9.83;78.34
79335;SPS30;69634;52.122;5.406;2023-05-16T00:46:38;5.04;4.55;3.46;2.04;16.28;16.23;16.00;14.51;10.34;79.93
79335;SPS30;69634;52.122;5.406;2023-05-16T00:49:11;5.13;4.62;3.46;1.99;15.97;15.90;15.65;14.11;9.90;82.14
79335;SPS30;69634;52.122;5.406;2023-05-16T00:51:48;5.47;4.94;3.70;2.14;17.07;16.99;16.73;15.09;10.59;82.55
79335;SPS30;69634;52.122;5.406;2023-05-16T00:54:21;4.89;4.41;3.34;1.96;15.66;15.61;15.36;13.94;9.91;79.56
79335;SPS30;69634;52.122;5.406;2023-05-16T00:56:56;4.59;4.17;3.19;1.90;15.23;15.17;14.97;13.64;9.80;77.26
79335;SPS30;69634;52.122;5.406;2023-05-16T00:59:28;4.63;4.21;3.22;1.95;15.49;15.43;15.22;13.89;10.02;77.04
79335;SPS30;69634;52.122;5.406;2023-05-16T01:02:00;5.09;4.60;3.47;2.00;16.00;15.95;15.69;14.18;9.99;79.80
79335;SPS30;69634;52.122;5.406;2023-05-16T01:04:33;4.88;4.43;3.39;2.03;16.29;16.25;16.00;14.61;10.53;77.36
79335;SPS30;69634;52.122;5.406;2023-05-16T01:07:11;4.29;3.91;3.04;1.89;15.12;15.07;14.88;13.70;10.07;74.13
79335;SPS30;69634;52.122;5.406;2023-05-16T01:09:44;4.41;4.00;3.09;1.88;14.97;14.94;14.74;13.50;9.81;78.05
79335;SPS30;69634;52.122;5.406;2023-05-16T01:12:21;4.81;4.39;3.39;2.09;16.63;16.60;16.38;15.02;10.97;77.59
79335;SPS30;69634;52.122;5.406;2023-05-16T01:15:04;4.56;4.14;3.19;1.95;15.45;15.41;15.19;13.91;10.07;77.63
79335;SPS30;69634;52.122;5.406;2023-05-16T01:17:49;4.91;4.45;3.39;1.99;16.06;16.01;15.78;14.36;10.26;78.01
79335;SPS30;69634;52.122;5.406;2023-05-16T01:20:32;5.15;4.64;3.50;2.04;16.25;16.16;15.93;14.40;10.16;81.49
79335;SPS30;69634;52.122;5.406;2023-05-16T01:23:31;4.74;4.31;3.31;2.01;16.01;15.99;15.75;14.39;10.41;78.38
79335;SPS30;69634;52.122;5.406;2023-05-16T01:26:15;4.46;4.07;3.15;1.96;15.61;15.56;15.36;14.13;10.35;75.92
79335;SPS30;69634;52.122;5.406;2023-05-16T01:28:50;4.58;4.19;3.28;2.10;16.71;16.66;16.46;15.24;11.31;74.73
79335;SPS30;69634;52.122;5.406;2023-05-16T01:31:24;4.59;4.19;3.26;2.01;16.09;16.03;15.84;14.56;10.68;78.04
79335;SPS30;69634;52.122;5.406;2023-05-16T01:33:57;4.76;4.31;3.31;2.02;16.16;16.11;15.89;14.56;10.55;79.24
79335;SPS30;69634;52.122;5.406;2023-05-16T01:36:29;4.39;4.00;3.06;1.86;14.99;14.94;14.74;13.49;9.79;78.30
79335;SPS30;69634;52.122;5.406;2023-05-16T01:39:10;4.64;4.22;3.23;1.96;15.64;15.59;15.39;14.06;10.17;79.04
79335;SPS30;69634;52.122;5.406;2023-05-16T01:41:58;4.68;4.26;3.29;2.04;16.31;16.26;16.04;14.74;10.79;76.94
79335;SPS30;69634;52.122;5.406;2023-05-16T01:44:36;4.69;4.27;3.36;2.11;16.85;16.79;16.59;15.32;11.31;74.78
79335;SPS30;69634;52.122;5.406;2023-05-16T01:47:16;4.32;3.96;3.11;2.03;16.19;16.14;15.97;14.84;11.11;72.96
79335;SPS30;69634;52.122;5.406;2023-05-16T01:49:54;3.95;3.61;2.85;1.85;14.66;14.62;14.45;13.41;10.01;74.31
79335;SPS30;69634;52.122;5.406;2023-05-16T01:52:34;4.16;3.81;3.01;1.97;15.71;15.69;15.49;14.41;10.81;72.50
79335;SPS30;69634;52.122;5.406;2023-05-16T01:55:13;3.97;3.64;2.88;1.90;15.11;15.06;14.91;13.89;10.45;73.36
79335;SPS30;69634;52.122;5.406;2023-05-16T01:57:54;4.09;3.77;3.00;1.97;15.71;15.67;15.50;14.44;10.89;73.38
79335;SPS30;69634;52.122;5.406;2023-05-16T02:00:29;4.51;4.12;3.23;2.07;16.57;16.51;16.33;15.14;11.25;75.18
79335;SPS30;69634;52.122;5.406;2023-05-16T02:03:01;4.47;4.09;3.15;1.97;15.76;15.71;15.51;14.26;10.48;76.98
79335;SPS30;69634;52.122;5.406;2023-05-16T02:05:34;4.43;4.02;3.14;1.98;15.74;15.69;15.50;14.29;10.53;75.26
79335;SPS30;69634;52.122;5.406;2023-05-16T02:08:07;4.52;4.12;3.25;2.08;16.48;16.43;16.23;15.02;11.14;73.84
79335;SPS30;69634;52.122;5.406;2023-05-16T02:10:39;4.43;4.05;3.16;2.01;16.01;15.96;15.77;14.57;10.79;74.23
79335;SPS30;69634;52.122;5.406;2023-05-16T02:13:14;4.55;4.13;3.18;1.95;15.59;15.54;15.34;14.06;10.23;76.84
79335;SPS30;69634;52.122;5.406;2023-05-16T02:15:46;4.50;4.10;3.14;1.94;15.53;15.46;15.27;14.01;10.23;77.06
79335;SPS30;69634;52.122;5.406;2023-05-16T02:18:19;4.24;3.87;3.01;1.92;15.29;15.26;15.06;13.92;10.29;74.69
79335;SPS30;69634;52.122;5.406;2023-05-16T02:20:52;4.26;3.90;3.05;1.93;15.36;15.28;15.09;13.96;10.30;74.26
79335;SPS30;69634;52.122;5.406;2023-05-16T02:23:24;4.68;4.24;3.26;1.99;15.87;15.81;15.59;14.29;10.36;77.17
79335;SPS30;69634;52.122;5.406;2023-05-16T02:25:57;4.36;4.00;3.12;2.01;15.98;15.94;15.75;14.58;10.84;74.96
79335;SPS30;69634;52.122;5.406;2023-05-16T02:28:32;4.03;3.71;2.98;2.01;16.12;16.09;15.94;14.96;11.38;71.08
79335;SPS30;69634;52.122;5.406;2023-05-16T02:31:05;3.94;3.62;2.93;1.99;15.95;15.89;15.77;14.81;11.33;70.49
79335;SPS30;69634;52.122;5.406;2023-05-16T02:33:37;4.07;3.74;2.99;1.99;15.85;15.80;15.64;14.61;11.05;70.56
79335;SPS30;69634;52.122;5.406;2023-05-16T02:36:09;4.41;4.04;3.24;2.15;17.14;17.09;16.90;15.79;11.96;69.59
79335;SPS30;69634;52.122;5.406;2023-05-16T02:38:42;4.30;3.93;3.10;2.01;16.03;15.99;15.81;14.68;10.99;71.19
79335;SPS30;69634;52.122;5.406;2023-05-16T02:41:15;4.59;4.20;3.26;2.06;16.44;16.40;16.20;14.96;11.03;73.11
79335;SPS30;69634;52.122;5.406;2023-05-16T02:43:51;4.47;4.11;3.28;2.17;17.23;17.19;17.02;15.87;11.95;68.20
79335;SPS30;69634;52.122;5.406;2023-05-16T02:46:24;4.33;3.99;3.19;2.14;16.98;16.94;16.76;15.69;11.89;68.86
79335;SPS30;69634;52.122;5.406;2023-05-16T02:48:58;4.19;3.83;3.06;2.04;16.24;16.19;16.04;14.98;11.33;70.76
79335;SPS30;69634;52.122;5.406;2023-05-16T02:51:30;4.40;4.03;3.21;2.11;16.90;16.86;16.67;15.56;11.73;71.34
79335;SPS30;69634;52.122;5.406;2023-05-16T02:54:02;4.09;3.77;3.04;2.06;16.56;16.54;16.36;15.38;11.75;71.31
79335;SPS30;69634;52.122;5.406;2023-05-16T02:56:36;4.10;3.78;3.04;2.06;16.37;16.33;16.16;15.14;11.53;70.08
79335;SPS30;69634;52.122;5.406;2023-05-16T02:59:11;4.01;3.71;2.99;2.03;16.09;16.07;15.90;14.93;11.37;69.18
79335;SPS30;69634;52.122;5.406;2023-05-16T03:01:43;4.21;3.90;3.13;2.10;16.76;16.71;16.56;15.50;11.79;70.08
79335;SPS30;69634;52.122;5.406;2023-05-16T03:04:15;4.00;3.71;3.01;2.09;16.61;16.59;16.44;15.47;11.91;67.14
79335;SPS30;69634;52.122;5.406;2023-05-16T03:06:49;4.06;3.76;3.09;2.14;17.12;17.09;16.93;15.99;12.34;66.09
79335;SPS30;69634;52.122;5.406;2023-05-16T03:09:21;3.78;3.51;2.86;2.02;16.09;16.06;15.94;15.05;11.66;65.38
79335;SPS30;69634;52.122;5.406;2023-05-16T03:11:53;3.67;3.41;2.77;1.91;15.25;15.21;15.06;14.19;10.89;67.27
79335;SPS30;69634;52.122;5.406;2023-05-16T03:14:28;4.11;3.79;3.04;2.05;16.31;16.27;16.11;15.09;11.49;68.54
79335;SPS30;69634;52.122;5.406;2023-05-16T03:17:00;4.21;3.86;3.09;2.06;16.56;16.50;16.34;15.28;11.60;68.41
79335;SPS30;69634;52.122;5.406;2023-05-16T03:19:33;4.31;3.97;3.14;2.08;16.49;16.44;16.26;15.15;11.41;70.23
79335;SPS30;69634;52.122;5.406;2023-05-16T03:22:05;4.01;3.71;3.00;2.06;16.37;16.33;16.19;15.21;11.65;68.24
79335;SPS30;69634;52.122;5.406;2023-05-16T03:24:38;3.79;3.51;2.79;1.89;14.99;14.97;14.81;13.87;10.54;70.64
79335;SPS30;69634;52.122;5.406;2023-05-16T03:27:11;4.48;4.11;3.27;2.13;17.04;16.99;16.79;15.66;11.76;71.99
79335;SPS30;69634;52.122;5.406;2023-05-16T03:29:46;4.46;4.08;3.19;2.03;16.27;16.20;16.01;14.82;11.01;74.39
79335;SPS30;69634;52.122;5.406;2023-05-16T03:32:18;4.54;4.15;3.25;2.06;16.41;16.36;16.17;14.95;11.04;74.04
79335;SPS30;69634;52.122;5.406;2023-05-16T03:34:50;4.12;3.80;3.04;2.04;16.41;16.37;16.21;15.19;11.54;71.23
79335;SPS30;69634;52.122;5.406;2023-05-16T03:37:22;4.30;3.95;3.19;2.18;17.36;17.33;17.14;16.11;12.30;69.05
79335;SPS30;69634;52.122;5.406;2023-05-16T03:39:55;4.36;4.02;3.26;2.23;17.72;17.68;17.52;16.46;12.60;68.21
79335;SPS30;69634;52.122;5.406;2023-05-16T03:42:27;4.20;3.87;3.11;2.13;16.92;16.89;16.72;15.72;12.00;67.92
79335;SPS30;69634;52.122;5.406;2023-05-16T03:45:03;4.11;3.80;3.06;2.09;16.66;16.63;16.46;15.49;11.83;66.83
79335;SPS30;69634;52.122;5.406;2023-05-16T03:47:37;4.11;3.80;3.09;2.14;17.01;16.99;16.82;15.86;12.21;65.66
79335;SPS30;69634;52.122;5.406;2023-05-16T03:50:09;3.96;3.66;2.99;2.07;16.55;16.49;16.34;15.42;11.88;66.31
79335;SPS30;69634;52.122;5.406;2023-05-16T03:52:41;3.75;3.49;2.83;1.99;15.71;15.69;15.54;14.66;11.33;65.85
79335;SPS30;69634;52.122;5.406;2023-05-16T03:55:14;3.85;3.55;2.88;1.98;15.84;15.81;15.66;14.74;11.32;67.25
79335;SPS30;69634;52.122;5.406;2023-05-16T03:57:46;3.84;3.58;2.90;2.03;16.18;16.14;15.99;15.10;11.65;68.18
79335;SPS30;69634;52.122;5.406;2023-05-16T04:00:22;4.23;3.91;3.17;2.20;17.49;17.45;17.30;16.28;12.54;68.63
79335;SPS30;69634;52.122;5.406;2023-05-16T04:02:54;3.83;3.54;2.88;1.97;15.78;15.76;15.59;14.69;11.28;68.71
79335;SPS30;69634;52.122;5.406;2023-05-16T04:05:26;4.01;3.71;3.03;2.09;16.64;16.61;16.45;15.49;11.92;68.74
79335;SPS30;69634;52.122;5.406;2023-05-16T04:07:59;3.89;3.61;2.95;2.09;16.61;16.56;16.44;15.56;12.07;67.16
79335;SPS30;69634;52.122;5.406;2023-05-16T04:10:31;3.59;3.35;2.80;2.02;16.12;16.09;15.96;15.21;11.92;65.96
79335;SPS30;69634;52.122;5.406;2023-05-16T04:13:03;3.36;3.13;2.61;1.93;15.27;15.24;15.13;14.41;11.33;66.51
79335;SPS30;69634;52.122;5.406;2023-05-16T04:15:38;3.49;3.26;2.74;2.02;16.04;16.01;15.90;15.17;11.96;65.47
79335;SPS30;69634;52.122;5.406;2023-05-16T04:18:11;3.57;3.35;2.81;2.07;16.39;16.36;16.24;15.48;12.19;64.24
79335;SPS30;69634;52.122;5.406;2023-05-16T04:20:43;3.57;3.35;2.82;2.09;16.53;16.49;16.38;15.64;12.34;63.09
79335;SPS30;69634;52.122;5.406;2023-05-16T04:23:16;3.27;3.06;2.60;1.96;15.59;15.56;15.46;14.83;11.76;61.59
79335;SPS30;69634;52.122;5.406;2023-05-16T04:25:48;3.70;3.48;2.92;2.19;17.29;17.24;17.11;16.35;12.94;62.79
79335;SPS30;69634;52.122;5.406;2023-05-16T04:28:21;3.56;3.35;2.84;2.10;16.66;16.60;16.49;15.76;12.44;62.33
79335;SPS30;69634;52.122;5.406;2023-05-16T04:30:56;3.67;3.44;2.94;2.23;17.61;17.56;17.45;16.74;13.30;61.64
79335;SPS30;69634;52.122;5.406;2023-05-16T04:33:29;3.22;3.03;2.57;1.96;15.44;15.38;15.29;14.66;11.64;62.31
79335;SPS30;69634;52.122;5.406;2023-05-16T04:36:02;3.42;3.22;2.71;2.01;15.91;15.89;15.79;15.06;11.89;62.98
79335;SPS30;69634;52.122;5.406;2023-05-16T04:38:35;3.46;3.23;2.71;2.00;15.86;15.86;15.74;15.01;11.84;61.80
79335;SPS30;69634;52.122;5.406;2023-05-16T04:41:08;3.83;3.58;2.99;2.21;17.46;17.42;17.29;16.49;12.96;62.85
79335;SPS30;69634;52.122;5.406;2023-05-16T04:43:40;3.79;3.52;2.89;2.07;16.31;16.27;16.14;15.29;11.86;65.23
79335;SPS30;69634;52.122;5.406;2023-05-16T04:46:15;4.06;3.76;3.07;2.14;17.01;16.96;16.82;15.84;12.21;67.56
79335;SPS30;69634;52.122;5.406;2023-05-16T04:48:48;4.09;3.76;3.07;2.14;16.96;16.92;16.79;15.81;12.17;68.24
79335;SPS30;69634;52.122;5.406;2023-05-16T04:51:21;3.77;3.51;2.86;2.02;16.00;15.96;15.84;14.95;11.57;67.56
79335;SPS30;69634;52.122;5.406;2023-05-16T04:53:53;3.63;3.38;2.77;1.96;15.61;15.58;15.45;14.62;11.34;67.44
79335;SPS30;69634;52.122;5.406;2023-05-16T04:56:25;3.51;3.26;2.70;1.94;15.58;15.54;15.42;14.66;11.50;64.47
79335;SPS30;69634;52.122;5.406;2023-05-16T04:58:58;3.56;3.31;2.74;1.96;15.59;15.54;15.43;14.64;11.40;65.42
79335;SPS30;69634;52.122;5.406;2023-05-16T05:01:33;3.72;3.47;2.86;2.05;16.24;16.20;16.06;15.23;11.85;65.06
79335;SPS30;69634;52.122;5.406;2023-05-16T05:04:06;3.59;3.34;2.72;1.91;15.15;15.12;14.99;14.14;10.94;66.78
79335;SPS30;69634;52.122;5.406;2023-05-16T05:06:38;3.67;3.39;2.76;1.92;15.21;15.19;15.04;14.15;10.90;68.24
79335;SPS30;69634;52.122;5.406;2023-05-16T05:09:11;3.34;3.11;2.56;1.85;14.56;14.53;14.43;13.66;10.65;67.29
79335;SPS30;69634;52.122;5.406;2023-05-16T05:11:43;3.50;3.26;2.69;1.89;15.02;14.99;14.85;14.06;10.92;68.03
79335;SPS30;69634;52.122;5.406;2023-05-16T05:14:15;3.44;3.21;2.67;1.94;15.44;15.39;15.29;14.54;11.40;66.06
79335;SPS30;69634;52.122;5.406;2023-05-16T05:16:50;3.52;3.26;2.71;1.96;15.63;15.61;15.48;14.71;11.51;66.26
79335;SPS30;69634;52.122;5.406;2023-05-16T05:19:22;3.62;3.34;2.69;1.86;14.78;14.74;14.60;13.74;10.54;69.14
79335;SPS30;69634;52.122;5.406;2023-05-16T05:21:55;3.74;3.45;2.79;1.91;15.10;15.08;14.92;14.01;10.70;70.06
79335;SPS30;69634;52.122;5.406;2023-05-16T05:24:27;3.52;3.26;2.65;1.81;14.56;14.50;14.36;13.53;10.40;70.11
79335;SPS30;69634;52.122;5.406;2023-05-16T05:26:59;3.55;3.29;2.66;1.82;14.51;14.49;14.35;13.49;10.34;70.74
79335;SPS30;69634;52.122;5.406;2023-05-16T05:29:32;3.41;3.14;2.57;1.79;14.24;14.23;14.09;13.29;10.24;69.66
79335;SPS30;69634;52.122;5.406;2023-05-16T05:32:06;3.65;3.37;2.75;1.91;15.13;15.10;14.96;14.09;10.83;69.41
79335;SPS30;69634;52.122;5.406;2023-05-16T05:34:39;3.46;3.19;2.61;1.81;14.29;14.25;14.14;13.29;10.21;68.49
79335;SPS30;69634;52.122;5.406;2023-05-16T05:37:11;3.39;3.14;2.57;1.79;14.39;14.35;14.21;13.44;10.39;67.19
79335;SPS30;69634;52.122;5.406;2023-05-16T05:39:44;3.18;2.97;2.44;1.73;13.78;13.75;13.63;12.89;10.01;67.54
79335;SPS30;69634;52.122;5.406;2023-05-16T05:42:16;3.76;3.45;2.79;1.91;15.17;15.14;15.00;14.08;10.77;70.86
79335;SPS30;69634;52.122;5.406;2023-05-16T05:44:48;3.76;3.47;2.78;1.84;14.70;14.67;14.51;13.56;10.26;70.66
79335;SPS30;69634;52.122;5.406;2023-05-16T05:47:23;3.42;3.14;2.53;1.72;13.66;13.66;13.48;12.67;9.66;69.56
79335;SPS30;69634;52.122;5.406;2023-05-16T05:49:55;3.64;3.36;2.73;1.88;14.91;14.89;14.75;13.87;10.64;69.91
79335;SPS30;69634;52.122;5.406;2023-05-16T05:52:29;3.53;3.25;2.59;1.79;14.07;14.05;13.89;13.02;9.92;70.94
79335;SPS30;69634;52.122;5.406;2023-05-16T05:55:01;3.63;3.36;2.72;1.90;15.05;15.04;14.90;14.02;10.80;68.69
79335;SPS30;69634;52.122;5.406;2023-05-16T05:57:33;3.66;3.37;2.72;1.87;14.89;14.86;14.72;13.83;10.59;69.82
79335;SPS30;69634;52.122;5.406;2023-05-16T06:00:06;3.53;3.24;2.60;1.72;13.67;13.61;13.49;12.59;9.51;71.83
79335;SPS30;69634;52.122;5.406;2023-05-16T06:02:41;3.45;3.17;2.55;1.71;13.74;13.71;13.57;12.71;9.69;70.38
79335;SPS30;69634;52.122;5.406;2023-05-16T06:05:14;2.94;2.75;2.30;1.69;13.44;13.43;13.32;12.71;10.00;64.10
79335;SPS30;69634;52.122;5.406;2023-05-16T06:07:46;2.65;2.46;2.06;1.51;12.01;11.98;11.89;11.31;8.88;65.72
79335;SPS30;69634;52.122;5.406;2023-05-16T06:10:18;2.78;2.59;2.15;1.52;12.05;12.01;11.91;11.29;8.76;67.28
79335;SPS30;69634;52.122;5.406;2023-05-16T06:12:51;3.25;2.96;2.36;1.56;12.41;12.36;12.26;11.41;8.59;71.94
79335;SPS30;69634;52.122;5.406;2023-05-16T06:15:23;3.73;3.41;2.69;1.76;13.94;13.93;13.75;12.79;9.60;73.02
79335;SPS30;69634;52.122;5.406;2023-05-16T06:17:58;3.01;2.76;2.19;1.39;11.21;11.18;11.07;10.26;7.67;74.06
79335;SPS30;69634;52.122;5.406;2023-05-16T06:20:31;3.41;3.12;2.44;1.56;12.42;12.39;12.24;11.34;8.41;73.97
79335;SPS30;69634;52.122;5.406;2023-05-16T06:23:03;3.09;2.83;2.25;1.49;11.79;11.74;11.62;10.84;8.17;71.33
79335;SPS30;69634;52.122;5.406;2023-05-16T06:25:35;2.97;2.71;2.14;1.41;11.31;11.30;11.18;10.41;7.83;71.91
79335;SPS30;69634;52.122;5.406;2023-05-16T06:28:08;2.91;2.65;2.11;1.38;10.87;10.84;10.71;9.95;7.45;73.69
79335;SPS30;69634;52.122;5.406;2023-05-16T06:30:40;3.24;2.97;2.34;1.51;12.02;12.00;11.86;11.01;8.21;74.34
79335;SPS30;69634;52.122;5.406;2023-05-16T06:33:16;2.91;2.66;2.11;1.36;10.90;10.86;10.74;9.99;7.47;74.16
79335;SPS30;69634;52.122;5.406;2023-05-16T06:35:49;3.01;2.77;2.19;1.45;11.56;11.56;11.44;10.67;8.02;73.59
79335;SPS30;69634;52.122;5.406;2023-05-16T06:38:21;3.36;3.08;2.44;1.58;12.59;12.55;12.41;11.53;8.64;74.63
79335;SPS30;69634;52.122;5.406;2023-05-16T06:40:53;3.09;2.81;2.19;1.41;11.30;11.26;11.12;10.31;7.66;74.88
79335;SPS30;69634;52.122;5.406;2023-05-16T06:43:25;3.03;2.78;2.16;1.36;10.77;10.76;10.62;9.78;7.20;77.32
79335;SPS30;69634;52.122;5.406;2023-05-16T06:45:58;3.35;3.03;2.33;1.44;11.44;11.38;11.25;10.29;7.48;80.26
79335;SPS30;69634;52.122;5.406;2023-05-16T06:48:33;2.79;2.54;1.98;1.25;9.94;9.92;9.80;9.03;6.66;77.01
79335;SPS30;69634;52.122;5.406;2023-05-16T06:51:05;2.89;2.63;2.05;1.29;10.33;10.28;10.15;9.37;6.92;76.36
79335;SPS30;69634;52.122;5.406;2023-05-16T06:53:37;3.05;2.79;2.16;1.36;10.89;10.84;10.72;9.89;7.30;76.18
79335;SPS30;69634;52.122;5.406;2023-05-16T06:56:09;3.07;2.79;2.15;1.30;10.43;10.37;10.25;9.37;6.79;78.85
79335;SPS30;69634;52.122;5.406;2023-05-16T06:58:42;3.21;2.92;2.24;1.34;10.76;10.71;10.58;9.65;6.96;79.43
79335;SPS30;69634;52.122;5.406;2023-05-16T07:01:15;3.24;2.94;2.28;1.41;11.26;11.24;11.08;10.19;7.46;77.29
79335;SPS30;69634;52.122;5.406;2023-05-16T07:03:50;2.79;2.55;2.00;1.29;10.29;10.27;10.15;9.40;7.02;74.14
79335;SPS30;69634;52.122;5.406;2023-05-16T07:06:23;2.78;2.54;1.99;1.28;10.27;10.25;10.14;9.41;7.01;73.67
79335;SPS30;69634;52.122;5.406;2023-05-16T07:08:55;2.82;2.57;1.99;1.25;10.00;9.96;9.85;9.09;6.70;74.57
79335;SPS30;69634;52.122;5.406;2023-05-16T07:11:28;2.61;2.40;1.88;1.20;9.55;9.54;9.41;8.71;6.46;72.14
79335;SPS30;69634;52.122;5.406;2023-05-16T07:14:01;2.47;2.26;1.78;1.14;9.12;9.10;8.99;8.33;6.23;71.23
79335;SPS30;69634;52.122;5.406;2023-05-16T07:16:33;2.41;2.21;1.74;1.11;9.05;9.02;8.92;8.29;6.20;70.07
79335;SPS30;69634;52.122;5.406;2023-05-16T07:19:08;2.52;2.30;1.82;1.19;9.38;9.34;9.24;8.56;6.41;69.69
79335;SPS30;69634;52.122;5.406;2023-05-16T07:21:40;2.54;2.31;1.81;1.15;9.19;9.15;9.04;8.36;6.19;71.10
79335;SPS30;69634;52.122;5.406;2023-05-16T07:24:12;2.36;2.15;1.68;1.09;8.61;8.59;8.49;7.85;5.84;70.95
79335;SPS30;69634;52.122;5.406;2023-05-16T07:26:45;2.83;2.56;1.99;1.27;10.11;10.09;9.96;9.21;6.79;72.56
79335;SPS30;69634;52.122;5.406;2023-05-16T07:29:17;2.63;2.39;1.88;1.20;9.56;9.54;9.44;8.73;6.49;71.99
79335;SPS30;69634;52.122;5.406;2023-05-16T07:31:50;2.73;2.51;1.96;1.25;9.99;9.96;9.84;9.12;6.77;72.64
79335;SPS30;69634;52.122;5.406;2023-05-16T07:34:25;2.62;2.38;1.86;1.17;9.36;9.34;9.21;8.50;6.27;74.39
79335;SPS30;69634;52.122;5.406;2023-05-16T07:36:57;2.43;2.22;1.73;1.09;8.71;8.69;8.57;7.92;5.83;74.37
79335;SPS30;69634;52.122;5.406;2023-05-16T07:39:30;2.18;1.99;1.56;0.99;7.91;7.88;7.79;7.19;5.34;74.04
79335;SPS30;69634;52.122;5.406;2023-05-16T07:42:02;2.18;1.99;1.57;1.04;8.21;8.21;8.11;7.52;5.64;73.16
79335;SPS30;69634;52.122;5.406;2023-05-16T07:44:35;2.24;2.06;1.65;1.11;8.86;8.83;8.74;8.19;6.24;70.98
79335;SPS30;69634;52.122;5.406;2023-05-16T07:47:07;2.53;2.32;1.83;1.18;9.38;9.34;9.23;8.57;6.39;73.86
79335;SPS30;69634;52.122;5.406;2023-05-16T07:49:42;2.38;2.19;1.74;1.17;9.31;9.26;9.17;8.58;6.49;71.82
79335;SPS30;69634;52.122;5.406;2023-05-16T07:52:14;2.17;2.00;1.61;1.07;8.61;8.57;8.51;7.94;6.04;71.64
79335;SPS30;69634;52.122;5.406;2023-05-16T07:54:46;2.26;2.08;1.66;1.13;8.96;8.92;8.83;8.26;6.28;71.33
79335;SPS30;69634;52.122;5.406;2023-05-16T07:57:18;2.36;2.18;1.78;1.22;9.76;9.74;9.64;9.09;6.99;69.50
79335;SPS30;69634;52.122;5.406;2023-05-16T07:59:51;2.27;2.10;1.69;1.14;9.05;9.05;8.95;8.40;6.38;71.60
79335;SPS30;69634;52.122;5.406;2023-05-16T08:02:24;2.30;2.11;1.69;1.14;9.06;9.04;8.95;8.36;6.36;72.09
79335;SPS30;69634;52.122;5.406;2023-05-16T08:05:00;2.46;2.26;1.81;1.19;9.54;9.51;9.42;8.80;6.65;72.86
79335;SPS30;69634;52.122;5.406;2023-05-16T08:07:32;2.36;2.19;1.74;1.14;8.98;8.96;8.86;8.24;6.18;73.37
79335;SPS30;69634;52.122;5.406;2023-05-16T08:10:05;2.54;2.33;1.83;1.19;9.47;9.45;9.34;8.66;6.47;73.12
79335;SPS30;69634;52.122;5.406;2023-05-16T08:12:40;2.26;2.08;1.64;1.07;8.56;8.54;8.44;7.84;5.88;73.49
79335;SPS30;69634;52.122;5.406;2023-05-16T08:15:12;2.42;2.20;1.75;1.14;9.15;9.12;9.04;8.40;6.31;73.54
79335;SPS30;69634;52.122;5.406;2023-05-16T08:17:45;2.49;2.28;1.78;1.15;9.21;9.16;9.04;8.38;6.26;75.18
79335;SPS30;69634;52.122;5.406;2023-05-16T08:20:20;2.64;2.42;1.87;1.18;9.36;9.35;9.24;8.49;6.28;77.68
79335;SPS30;69634;52.122;5.406;2023-05-16T08:22:52;2.40;2.18;1.71;1.09;8.74;8.72;8.62;7.99;5.94;75.74
79335;SPS30;69634;52.122;5.406;2023-05-16T08:25:25;2.58;2.34;1.83;1.16;9.27;9.24;9.14;8.44;6.24;75.30
79335;SPS30;69634;52.122;5.406;2023-05-16T08:27:58;2.41;2.20;1.73;1.10;8.76;8.72;8.63;7.98;5.94;74.12
79335;SPS30;69634;52.122;5.406;2023-05-16T08:30:30;2.27;2.08;1.64;1.05;8.44;8.41;8.31;7.74;5.77;73.04
79335;SPS30;69634;52.122;5.406;2023-05-16T08:33:03;2.53;2.30;1.79;1.11;8.96;8.93;8.83;8.13;5.98;75.74
79335;SPS30;69634;52.122;5.406;2023-05-16T08:35:39;2.59;2.38;1.84;1.17;9.36;9.35;9.23;8.50;6.30;75.07
79335;SPS30;69634;52.122;5.406;2023-05-16T08:38:13;2.30;2.11;1.66;1.09;8.73;8.68;8.60;8.00;6.00;72.89
79335;SPS30;69634;52.122;5.406;2023-05-16T08:40:45;2.61;2.41;1.89;1.25;9.89;9.86;9.75;9.07;6.80;73.59
79335;SPS30;69634;52.122;5.406;2023-05-16T08:43:17;2.14;1.99;1.55;1.01;8.04;8.00;7.91;7.34;5.49;74.16
79335;SPS30;69634;52.122;5.406;2023-05-16T08:45:50;2.33;2.14;1.69;1.12;8.88;8.86;8.77;8.17;6.15;73.01
79335;SPS30;69634;52.122;5.406;2023-05-16T08:48:23;2.18;2.01;1.61;1.06;8.47;8.44;8.36;7.80;5.90;72.08
79335;SPS30;69634;52.122;5.406;2023-05-16T08:51:02;2.58;2.36;1.90;1.27;10.05;10.01;9.91;9.26;7.01;71.81
79335;SPS30;69634;52.122;5.406;2023-05-16T08:53:41;2.64;2.43;1.94;1.30;10.33;10.31;10.20;9.54;7.24;71.51
79335;SPS30;69634;52.122;5.406;2023-05-16T08:56:20;2.17;2.01;1.61;1.11;8.85;8.82;8.75;8.20;6.29;70.05
79335;SPS30;69634;52.122;5.406;2023-05-16T08:58:55;2.00;1.84;1.49;1.04;8.18;8.16;8.10;7.62;5.84;70.91
79335;SPS30;69634;52.122;5.406;2023-05-16T09:01:29;2.38;2.18;1.76;1.19;9.46;9.43;9.35;8.75;6.65;73.16
79335;SPS30;69634;52.122;5.406;2023-05-16T09:04:01;2.19;1.99;1.57;1.02;8.28;8.23;8.15;7.59;5.70;75.46
79335;SPS30;69634;52.122;5.406;2023-05-16T09:06:39;2.40;2.19;1.74;1.13;9.05;9.01;8.92;8.29;6.21;75.59
79335;SPS30;69634;52.122;5.406;2023-05-16T09:09:12;2.03;1.85;1.46;0.96;7.72;7.69;7.61;7.09;5.31;75.63
79335;SPS30;69634;52.122;5.406;2023-05-16T09:11:44;2.14;1.98;1.56;1.02;8.28;8.25;8.16;7.60;5.74;73.67
79335;SPS30;69634;52.122;5.406;2023-05-16T09:14:17;2.31;2.13;1.69;1.08;8.67;8.64;8.53;7.92;5.92;73.93
79335;SPS30;69634;52.122;5.406;2023-05-16T09:17:01;2.04;1.88;1.46;0.94;7.37;7.35;7.25;6.71;4.94;75.06
79335;SPS30;69634;52.122;5.406;2023-05-16T09:19:38;1.81;1.66;1.32;0.84;6.69;6.66;6.57;6.09;4.54;74.79
79335;SPS30;69634;52.122;5.406;2023-05-16T09:22:17;2.04;1.86;1.46;0.91;7.31;7.29;7.19;6.63;4.89;75.57
79335;SPS30;69634;52.122;5.406;2023-05-16T09:24:50;2.64;2.39;1.83;1.09;8.79;8.76;8.64;7.89;5.68;79.21
79335;SPS30;69634;52.122;5.406;2023-05-16T09:27:22;2.29;2.09;1.59;0.96;7.74;7.73;7.62;6.97;5.04;78.83
79335;SPS30;69634;52.122;5.406;2023-05-16T09:29:56;2.11;1.91;1.46;0.89;7.13;7.11;7.01;6.41;4.64;79.01
79335;SPS30;69634;52.122;5.406;2023-05-16T09:32:30;2.21;1.99;1.53;0.92;7.38;7.34;7.24;6.60;4.78;79.74
79335;SPS30;69634;52.122;5.406;2023-05-16T09:35:02;2.09;1.89;1.45;0.89;7.01;6.98;6.89;6.29;4.56;79.64
79335;SPS30;69634;52.122;5.406;2023-05-16T09:37:38;2.21;1.99;1.52;0.91;7.31;7.29;7.19;6.56;4.71;80.28